Country
Station

 

Weather  for  Albany, Albany County Airport  -  United States    United States

  
-1 °C (30 °F)
    
 
 

Current METAR for Albany, Albany County Airport is :

KALB 111851Z 00000KT 10SM OVC036 M01/M09 A3002 RMK AO2 SLP170 BINOVC T10111089

 

This is a report for Albany, Albany County Airport - United States.
 
The report was made 35 minutes ago, at 18:51 UTC .
The wind was calm.
 
The temperature was -1 °C (30 °F), with a dew-point at -9 °C (16 °F).
The atmospheric pressure was 1017 hPa (30.02 inHg).
The relative humidity was 54.5%.
 
The sky was overcast from a height of 1097 meter (3600 feet)
 
The overall visibility was 16.1 kilometers (10.0 miles).
 

 
 
 
 

Country :   A   B   C   D   E   F   G   H   I   J   K   L   M   N   O   P   Q   R   S   T   U   V   W   Y   Z

 

Site Info  |  Disclaimer  |  Credits  |  Privacy
Contact us  |  Add to favorites
© 2013-2018 METARs - All rights reserved